Ginys del Meteocat
Campanya meteocatpedra

Dades de l'estació automàtica Viladecans

?
?
Resum diari 21:30 TU
Dades diàries de l'estació meteorològica
Temperatura mitjana 18.1 °C
Temperatura màxima 25.7 °C 12:01 TU
Temperatura mínima 11.9 °C 3:17 TU
Humitat relativa mitjana 75%
Precipitació acumulada 0.0 mm
Ratxa màxima del vent (2 m) 19.1 km/h - 257º 13:48 TU
Irradiació solar global 8.9 MJ/m2

El tram horari està expressat en Temps Universal (TU). Cal sumar una hora en horari d'hivern i dues en horari d'estiu per passar a l'hora oficial.

Viladecans

Metadades estació meteorol´gica
Municipi Viladecans
Comarca Baix Llobregat
Altitud 3 m
Data alta 29.04.1993
Estat actual Operativa
Dades de període
Període
TU
TM
°C
TX
°C
TN
°C
HRM
%
PPT
mm
VVM (2 m)
km/h
DVM (2 m)
graus
VVX (2 m)
km/h
RS
W/m2
00:00 - 00:30 14.5 14.7 14.0 76 0.0 0.7 56 3.2 0
00:30 - 01:00 13.3 13.9 13.1 82 0.0 0.4 60 3.2 0
01:00 - 01:30 14.3 15.0 13.4 76 0.0 1.4 43 5.0 0
01:30 - 02:00 13.2 13.5 12.7 82 0.0 0.4 105 1.4 0
02:00 - 02:30 12.9 13.2 12.4 83 0.0 0.0 56 1.8 0
02:30 - 03:00 13.0 13.3 12.6 83 0.0 0.0 51 3.2 0
03:00 - 03:30 12.3 13.0 11.9 87 0.0 0.4 99 3.2 0
03:30 - 04:00 13.2 13.3 13.0 82 0.0 0.7 57 2.9 0
04:00 - 04:30 13.0 13.1 12.9 82 0.0 1.1 46 4.0 0
04:30 - 05:00 13.1 13.4 12.9 82 0.0 0.7 54 4.3 0
05:00 - 05:30 13.2 13.5 12.9 82 0.0 0.7 88 2.9 0
05:30 - 06:00 13.1 13.2 12.9 82 0.0 1.8 81 3.6 0
06:00 - 06:30 13.4 13.6 13.1 80 0.0 1.1 53 5.0 9
06:30 - 07:00 14.1 14.4 13.7 79 0.0 0.4 59 2.9 33
07:00 - 07:30 15.0 15.5 14.5 75 0.0 1.1 63 4.3 70
07:30 - 08:00 16.2 16.8 15.5 69 0.0 2.2 57 6.1 112
08:00 - 08:30 17.4 18.2 16.9 66 0.0 1.8 54 5.4 183
08:30 - 09:00 19.3 20.2 18.4 60 0.0 1.8 62 4.3 334
09:00 - 09:30 20.3 20.7 20.2 57 0.0 2.2 59 6.1 325
09:30 - 10:00 20.8 21.0 20.7 57 0.0 1.1 71 3.2 252
10:00 - 10:30 21.2 21.6 21.0 56 0.0 1.8 46 5.8 351
10:30 - 11:00 22.2 22.5 21.6 56 0.0 1.4 94 5.4 350
11:00 - 11:30 22.8 24.1 22.1 57 0.0 1.4 84 4.7 437
11:30 - 12:00 24.1 25.4 22.8 56 0.0 2.2 227 8.6 487
12:00 - 12:30 23.8 25.7 23.3 57 0.0 1.4 200 7.9 313
12:30 - 13:00 23.2 23.5 22.8 62 0.0 1.4 227 10.1 273
13:00 - 13:30 23.2 23.4 22.9 64 0.0 1.8 230 10.1 266
13:30 - 14:00 22.9 23.1 22.7 69 0.0 4.0 243 19.1 254
14:00 - 14:30 23.1 24.2 22.7 73 0.0 4.3 244 14.8 300
14:30 - 15:00 24.0 24.3 23.6 70 0.0 2.5 235 13.7 289
15:00 - 15:30 23.0 23.6 22.6 75 0.0 2.2 234 10.8 156
15:30 - 16:00 22.3 22.5 22.2 78 0.0 1.4 234 9.4 114
16:00 - 16:30 22.0 22.5 21.5 78 0.0 3.2 240 15.5 75
16:30 - 17:00 21.1 21.5 20.8 82 0.0 1.4 233 10.4 21
17:00 - 17:30 20.5 20.8 20.1 80 0.0 0.7 226 8.3 0
17:30 - 18:00 19.6 20.0 19.3 82 0.0 0.0 222 2.5 0
18:00 - 18:30 19.3 19.5 19.1 81 0.0 0.7 181 3.2 0
18:30 - 19:00 18.7 19.1 18.5 81 0.0 0.0 175 1.8 0
19:00 - 19:30 18.0 18.7 17.6 80 0.0 0.0 296 1.8 0
19:30 - 20:00 17.6 18.1 17.3 79 0.0 0.7 47 2.9 0
20:00 - 20:30 17.4 17.6 17.1 80 0.0 1.4 55 4.0 0
20:30 - 21:00 16.9 17.1 16.8 86 0.0 0.7 64 2.5 0
21:00 - 21:30 16.4 16.9 15.8 88 0.0 0.4 85 2.5 0
21:30 - 22:00 15.7 16.0 15.4 91 0.0 0.4 119 2.5 0

Les dades en taronja només han passat un control de qualitat automàtic. Resta pendent la seva validació definitiva.